Time;durP1;ratioP1;P1;durP2;ratioP2;P2;SDS_P1;SDS_P2;PMS_P1;PMS_P2;Temp;Humidity;BMP_temperature;BMP_pressure;BME280_temperature;BME280_humidity;BME280_pressure;Samples;Min_cycle;Max_cycle;Signal;HPM_P1;HPM_P2
2023/09/07 00:01:01;;;;;;;2.65;0.90;;;11.50;99.90;;;;;;4899997;29;20067;-67
2023/09/07 00:03:28;;;;;;;1.92;0.57;;;11.50;99.90;;;;;;4905833;29;20040;-67
2023/09/07 00:05:55;;;;;;;1.75;0.85;;;11.60;99.90;;;;;;4910142;29;20063;-70
2023/09/07 00:08:22;;;;;;;2.45;0.70;;;11.50;99.90;;;;;;4903318;29;20108;-67
2023/09/07 00:10:48;;;;;;;1.88;0.73;;;11.50;99.90;;;;;;4902830;29;20570;-67
2023/09/07 00:13:15;;;;;;;1.45;0.73;;;11.50;99.90;;;;;;4908721;29;20055;-67
2023/09/07 00:15:43;;;;;;;4.25;1.70;;;11.50;99.90;;;;;;4904703;29;20626;-66
2023/09/07 00:18:10;;;;;;;1.08;0.77;;;11.50;99.90;;;;;;4904087;29;20076;-67
2023/09/07 00:20:37;;;;;;;1.48;1.00;;;11.50;99.90;;;;;;4909663;29;20052;-68
2023/09/07 00:23:04;;;;;;;2.58;1.05;;;11.40;99.90;;;;;;4905412;29;20048;-66
2023/09/07 00:25:31;;;;;;;2.13;0.88;;;11.40;99.90;;;;;;4907243;29;20119;-67
2023/09/07 00:27:58;;;;;;;2.47;1.05;;;11.50;99.90;;;;;;4906346;29;20069;-69
2023/09/07 00:30:25;;;;;;;1.80;0.90;;;11.40;99.90;;;;;;4904086;29;20415;-66
2023/09/07 00:32:51;;;;;;;1.63;0.82;;;11.40;99.90;;;;;;4904164;29;20044;-66
2023/09/07 00:35:18;;;;;;;3.45;0.70;;;11.40;99.90;;;;;;4905159;29;20083;-66
2023/09/07 00:37:45;;;;;;;4.43;1.75;;;11.40;99.90;;;;;;4903395;29;20119;-65
2023/09/07 00:40:12;;;;;;;1.77;0.88;;;11.40;99.90;;;;;;4909344;29;20111;-72
2023/09/07 00:42:39;;;;;;;2.83;0.70;;;11.40;99.90;;;;;;4908024;29;20491;-67
2023/09/07 00:45:07;;;;;;;2.28;0.80;;;11.30;99.90;;;;;;4910909;29;20392;-66
2023/09/07 00:47:37;;;;;;;2.45;1.10;;;11.30;99.90;;;;;;4902759;29;20068;-69
2023/09/07 00:50:05;;;;;;;1.98;1.27;;;11.30;99.90;;;;;;4907783;29;20067;-67
2023/09/07 00:52:35;;;;;;;1.15;0.68;;;11.30;99.90;;;;;;4886924;29;20049;-67
2023/09/07 00:55:04;;;;;;;2.65;0.85;;;11.30;99.90;;;;;;4906599;29;20048;-67
2023/09/07 00:57:32;;;;;;;4.35;1.63;;;11.30;99.90;;;;;;4895526;29;20092;-68
2023/09/07 00:59:59;;;;;;;3.50;1.02;;;11.30;99.90;;;;;;4906604;29;20471;-68
2023/09/07 01:02:26;;;;;;;2.88;1.17;;;11.30;99.90;;;;;;4911347;29;20115;-67
2023/09/07 01:04:53;;;;;;;1.52;0.90;;;11.30;99.90;;;;;;4904322;29;20134;-66
2023/09/07 01:07:31;;;;;;;3.20;1.48;;;11.30;99.90;;;;;;4890058;29;20782;-69
2023/09/07 01:10:00;;;;;;;1.85;0.80;;;11.20;99.90;;;;;;4895726;29;20057;-67
2023/09/07 01:12:27;;;;;;;0.90;0.55;;;11.20;99.90;;;;;;4906877;29;20052;-66
2023/09/07 01:14:54;;;;;;;2.22;0.93;;;11.20;99.90;;;;;;4904784;29;20668;-71
2023/09/07 01:17:22;;;;;;;1.02;0.95;;;11.20;99.90;;;;;;4907581;29;20043;-66
2023/09/07 01:19:51;;;;;;;3.20;1.02;;;11.20;99.90;;;;;;4905780;29;20522;-66
2023/09/07 01:22:19;;;;;;;3.75;1.52;;;11.20;99.90;;;;;;4905366;29;20056;-66
2023/09/07 01:24:47;;;;;;;1.60;0.90;;;11.10;99.90;;;;;;4902098;29;20131;-66
2023/09/07 01:27:14;;;;;;;3.35;0.95;;;11.10;99.90;;;;;;4911409;29;20060;-72
2023/09/07 01:29:41;;;;;;;0.93;0.60;;;11.10;99.90;;;;;;4900059;29;20045;-66
2023/09/07 01:32:09;;;;;;;1.38;1.05;;;11.10;99.90;;;;;;4894882;29;20052;-66
2023/09/07 01:34:38;;;;;;;2.83;0.95;;;11.10;99.90;;;;;;4909869;29;20059;-67
2023/09/07 01:37:07;;;;;;;2.50;0.85;;;11.10;99.90;;;;;;4911727;29;20044;-68
2023/09/07 01:39:35;;;;;;;3.97;0.90;;;11.10;99.90;;;;;;4904314;29;20048;-67
2023/09/07 01:42:02;;;;;;;2.72;0.77;;;11.10;99.90;;;;;;4892291;29;20139;-70
2023/09/07 01:44:29;;;;;;;3.05;0.93;;;11.10;99.90;;;;;;4905940;29;20444;-68
2023/09/07 01:46:56;;;;;;;3.53;1.13;;;11.10;99.90;;;;;;4884518;29;20428;-66
2023/09/07 01:49:24;;;;;;;5.20;0.90;;;11.10;99.90;;;;;;4910286;29;20052;-67
2023/09/07 01:51:52;;;;;;;1.15;0.80;;;11.10;99.90;;;;;;4894518;29;20087;-70
2023/09/07 01:54:21;;;;;;;1.00;0.52;;;11.10;99.90;;;;;;4901102;29;20055;-67
2023/09/07 01:56:52;;;;;;;3.00;0.95;;;11.00;99.90;;;;;;4892779;29;20052;-65
2023/09/07 01:59:19;;;;;;;;;;;11.00;99.90;;;;;;4891831;29;20069;-67
2023/09/07 02:01:45;;;;;;;2.50;1.05;;;11.00;99.90;;;;;;4903438;29;19927;-68
2023/09/07 02:04:12;;;;;;;1.58;0.75;;;11.00;99.90;;;;;;4889707;29;20059;-65
2023/09/07 02:06:39;;;;;;;1.10;0.80;;;10.90;99.90;;;;;;4905164;29;20433;-70
2023/09/07 02:09:07;;;;;;;1.73;1.08;;;11.00;99.90;;;;;;4904054;29;21025;-68
2023/09/07 02:11:36;;;;;;;3.03;1.00;;;11.00;99.90;;;;;;4902385;29;20060;-65
2023/09/07 02:14:03;;;;;;;2.15;1.25;;;10.90;99.90;;;;;;4885958;29;20574;-68
2023/09/07 02:16:30;;;;;;;5.93;1.17;;;11.00;99.90;;;;;;4908723;29;20494;-72
2023/09/07 02:19:03;;;;;;;2.95;0.93;;;10.90;99.90;;;;;;4894701;29;20376;-67
2023/09/07 02:21:31;;;;;;;1.23;0.80;;;11.00;99.90;;;;;;4902629;29;20044;-66
2023/09/07 02:23:58;;;;;;;3.17;0.70;;;10.90;99.90;;;;;;4903898;29;20048;-69
2023/09/07 02:26:25;;;;;;;8.50;1.30;;;10.90;99.90;;;;;;4906545;29;20047;-66
2023/09/07 02:28:52;;;;;;;1.55;0.77;;;10.90;99.90;;;;;;4904042;29;20204;-67
2023/09/07 02:31:19;;;;;;;3.65;0.68;;;10.90;99.90;;;;;;4892776;29;20080;-67
2023/09/07 02:33:46;;;;;;;2.13;1.10;;;10.90;99.90;;;;;;4890077;29;20044;-66
2023/09/07 02:36:13;;;;;;;2.42;0.80;;;10.90;99.90;;;;;;4904594;29;20044;-67
2023/09/07 02:38:41;;;;;;;1.77;1.10;;;10.90;99.90;;;;;;4903477;29;20048;-69
2023/09/07 02:41:08;;;;;;;1.60;0.73;;;10.90;99.90;;;;;;4890843;29;20051;-65
2023/09/07 02:43:35;;;;;;;1.88;1.17;;;10.90;99.90;;;;;;4904278;29;20052;-65
2023/09/07 02:46:02;;;;;;;1.42;0.77;;;10.80;99.90;;;;;;4904779;29;20088;-70
2023/09/07 02:48:29;;;;;;;1.75;0.75;;;10.80;99.90;;;;;;4906066;29;20138;-66
2023/09/07 02:50:58;;;;;;;3.90;0.70;;;10.80;99.90;;;;;;4901171;29;20163;-66
2023/09/07 02:53:25;;;;;;;2.50;1.25;;;10.80;99.90;;;;;;4905893;29;20063;-65
2023/09/07 02:55:52;;;;;;;4.13;0.95;;;10.80;99.90;;;;;;4904797;29;20059;-65
2023/09/07 02:58:19;;;;;;;1.60;0.80;;;10.80;99.90;;;;;;4909857;29;20052;-66
2023/09/07 03:00:47;;;;;;;1.75;0.70;;;10.80;99.90;;;;;;4888596;29;20082;-66
2023/09/07 03:03:17;;;;;;;3.15;1.00;;;10.80;99.90;;;;;;4903582;29;20040;-65
2023/09/07 03:05:45;;;;;;;2.42;1.00;;;10.80;99.90;;;;;;4893109;29;20070;-66
2023/09/07 03:08:13;;;;;;;1.48;0.73;;;10.80;99.90;;;;;;4886991;29;20062;-64
2023/09/07 03:10:40;;;;;;;1.13;0.88;;;10.80;99.90;;;;;;4904757;29;20051;-67
2023/09/07 03:13:08;;;;;;;1.55;0.90;;;10.80;99.90;;;;;;4886401;29;20045;-67
2023/09/07 03:15:35;;;;;;;3.60;1.10;;;10.80;99.90;;;;;;4901998;29;20064;-65
2023/09/07 03:18:06;;;;;;;4.40;1.05;;;10.80;99.90;;;;;;4885601;29;20080;-68
2023/09/07 03:20:34;;;;;;;4.20;0.88;;;10.80;99.90;;;;;;4898181;29;20056;-66
2023/09/07 03:23:03;;;;;;;1.80;0.73;;;10.80;99.90;;;;;;4901168;29;20055;-70
2023/09/07 03:25:30;;;;;;;2.63;1.80;;;10.80;99.90;;;;;;4904547;29;20107;-68
2023/09/07 03:27:57;;;;;;;1.85;1.00;;;10.80;99.90;;;;;;4888396;29;20475;-65
2023/09/07 03:30:25;;;;;;;1.48;0.85;;;10.80;99.90;;;;;;4889327;29;20054;-65
2023/09/07 03:32:53;;;;;;;2.42;1.10;;;10.80;99.90;;;;;;4886931;29;20143;-66
2023/09/07 03:35:20;;;;;;;2.22;0.95;;;10.80;99.90;;;;;;4892833;29;20107;-67
2023/09/07 03:37:47;;;;;;;4.05;0.70;;;10.80;99.90;;;;;;4903984;29;20076;-65
2023/09/07 03:40:14;;;;;;;2.15;0.77;;;10.70;99.90;;;;;;4893795;29;20052;-66
2023/09/07 03:42:43;;;;;;;3.47;1.38;;;10.70;99.90;;;;;;4901743;29;20049;-70
2023/09/07 03:45:11;;;;;;;3.43;0.80;;;10.70;99.90;;;;;;4900563;29;20056;-67
2023/09/07 03:47:38;;;;;;;1.20;0.77;;;10.70;99.90;;;;;;4907175;29;20661;-67
2023/09/07 03:50:06;;;;;;;1.40;0.80;;;10.70;99.90;;;;;;4898249;29;20056;-65
2023/09/07 03:52:34;;;;;;;1.33;0.90;;;10.60;99.90;;;;;;4889029;29;20150;-65
2023/09/07 03:55:03;;;;;;;2.17;0.70;;;10.60;99.90;;;;;;4902164;29;20646;-67
2023/09/07 03:57:30;;;;;;;2.55;0.95;;;10.60;99.90;;;;;;4902564;29;20048;-71
2023/09/07 03:59:58;;;;;;;1.13;1.02;;;10.60;99.90;;;;;;4887528;29;20108;-65
2023/09/07 04:02:25;;;;;;;2.88;0.70;;;10.60;99.90;;;;;;4902243;29;20379;-67
2023/09/07 04:04:55;;;;;;;4.95;0.93;;;10.60;99.90;;;;;;4908230;29;20048;-67
2023/09/07 04:07:22;;;;;;;1.92;0.90;;;10.60;99.90;;;;;;4883293;29;20704;-67
2023/09/07 04:09:50;;;;;;;1.65;0.80;;;10.60;99.90;;;;;;4902883;29;20508;-65
2023/09/07 04:12:17;;;;;;;2.35;0.98;;;10.70;99.90;;;;;;4897725;29;20143;-69
2023/09/07 04:14:44;;;;;;;3.03;0.95;;;10.60;99.90;;;;;;4904261;29;20048;-66
2023/09/07 04:17:12;;;;;;;4.97;1.17;;;10.60;99.90;;;;;;4901437;29;20055;-67
2023/09/07 04:19:39;;;;;;;1.95;0.90;;;10.70;99.90;;;;;;4895197;29;20087;-68
2023/09/07 04:22:06;;;;;;;3.00;1.38;;;10.70;99.90;;;;;;4890653;29;20107;-69
2023/09/07 04:24:33;;;;;;;1.60;0.93;;;10.70;99.90;;;;;;4905317;29;20040;-66
2023/09/07 04:27:02;;;;;;;3.55;1.20;;;10.80;99.90;;;;;;4891607;29;20058;-69
2023/09/07 04:29:30;;;;;;;1.35;0.90;;;10.80;99.90;;;;;;4886775;29;20052;-66
2023/09/07 04:31:57;;;;;;;2.33;0.65;;;10.80;99.90;;;;;;4890666;29;20127;-65
2023/09/07 04:34:24;;;;;;;4.60;1.10;;;10.80;99.90;;;;;;4902792;29;20062;-66
2023/09/07 04:36:53;;;;;;;1.50;0.80;;;10.80;99.90;;;;;;4886795;29;20517;-68
2023/09/07 04:39:20;;;;;;;1.63;0.55;;;10.80;99.90;;;;;;4907894;29;20044;-66
2023/09/07 04:41:47;;;;;;;2.42;0.93;;;10.80;99.90;;;;;;4905972;29;20123;-66
2023/09/07 04:44:15;;;;;;;1.00;0.68;;;10.90;99.90;;;;;;4905720;29;20298;-66
2023/09/07 04:46:42;;;;;;;2.83;0.90;;;10.90;99.90;;;;;;4886598;29;20056;-64
2023/09/07 04:49:10;;;;;;;2.63;1.55;;;11.00;99.90;;;;;;4909662;29;20055;-65
2023/09/07 04:51:37;;;;;;;3.78;0.82;;;11.00;99.90;;;;;;4912179;29;20063;-65
2023/09/07 04:54:04;;;;;;;1.15;0.80;;;11.00;99.90;;;;;;4906227;29;20174;-69
2023/09/07 04:56:31;;;;;;;3.00;0.95;;;11.10;99.90;;;;;;4906263;29;20104;-65
2023/09/07 04:58:58;;;;;;;2.35;1.00;;;11.10;99.90;;;;;;4905220;29;20121;-66
2023/09/07 05:01:26;;;;;;;6.97;0.73;;;11.10;99.90;;;;;;4910987;29;20554;-65
2023/09/07 05:03:55;;;;;;;1.27;0.60;;;11.20;99.90;;;;;;4893920;29;20048;-65
2023/09/07 05:06:22;;;;;;;2.63;1.70;;;11.20;99.90;;;;;;4888928;29;20536;-64
2023/09/07 05:08:51;;;;;;;4.43;0.85;;;11.20;99.90;;;;;;4907816;29;20055;-65
2023/09/07 05:11:17;;;;;;;5.80;1.38;;;11.30;99.90;;;;;;4903877;29;20075;-68
2023/09/07 05:13:44;;;;;;;4.38;0.80;;;11.40;99.90;;;;;;4907965;29;20490;-64
2023/09/07 05:16:12;;;;;;;1.52;0.98;;;11.40;99.90;;;;;;4906951;29;20055;-65
2023/09/07 05:18:41;;;;;;;2.15;0.82;;;11.50;99.90;;;;;;4887233;29;20052;-66
2023/09/07 05:21:15;;;;;;;3.08;0.93;;;11.60;99.90;;;;;;4887841;29;20076;-67
2023/09/07 05:23:43;;;;;;;3.58;0.88;;;11.70;99.90;;;;;;4907114;29;20045;-65
2023/09/07 05:26:10;;;;;;;5.40;1.83;;;11.70;99.90;;;;;;4888693;29;20074;-67
2023/09/07 05:28:39;;;;;;;11.02;2.17;;;11.80;99.90;;;;;;4909237;29;20055;-66
2023/09/07 05:31:06;;;;;;;1.40;0.82;;;11.90;99.90;;;;;;4891575;29;20052;-68
2023/09/07 05:33:34;;;;;;;2.80;1.02;;;12.00;99.90;;;;;;4907527;29;20471;-66
2023/09/07 05:36:01;;;;;;;4.15;1.92;;;12.10;99.90;;;;;;4906060;29;20464;-68
2023/09/07 05:38:29;;;;;;;4.82;0.88;;;12.20;99.90;;;;;;4892400;29;20052;-69
2023/09/07 05:40:59;;;;;;;;;;;12.30;99.90;;;;;;4907581;29;20056;-66
2023/09/07 05:43:26;;;;;;;3.17;1.05;;;12.40;99.90;;;;;;4902298;29;20633;-66
2023/09/07 05:45:53;;;;;;;3.60;0.95;;;12.50;99.90;;;;;;4909841;29;20048;-69
2023/09/07 05:48:20;;;;;;;2.28;1.17;;;12.70;99.90;;;;;;4890805;29;20713;-66
2023/09/07 05:50:48;;;;;;;2.72;0.85;;;12.70;99.90;;;;;;4882087;29;20075;-66
2023/09/07 05:53:15;;;;;;;4.65;1.10;;;12.80;99.90;;;;;;4900775;29;20428;-66
2023/09/07 05:55:41;;;;;;;1.10;0.82;;;12.80;99.90;;;;;;4903862;29;20538;-66
2023/09/07 05:58:09;;;;;;;2.35;1.00;;;12.90;99.90;;;;;;4894613;29;20060;-66
2023/09/07 06:00:40;;;;;;;5.28;0.70;;;12.90;99.90;;;;;;4888721;29;20573;-68
2023/09/07 06:03:09;;;;;;;6.18;1.63;;;13.00;99.90;;;;;;4903971;29;20064;-66
2023/09/07 06:05:38;;;;;;;8.20;1.60;;;13.00;99.90;;;;;;4904139;29;20135;-67
2023/09/07 06:08:07;;;;;;;10.25;2.13;;;13.10;99.90;;;;;;4902712;29;20486;-68
2023/09/07 06:10:35;;;;;;;3.58;1.25;;;13.20;99.90;;;;;;4903571;29;20088;-66
2023/09/07 06:13:02;;;;;;;4.47;1.38;;;13.20;99.90;;;;;;4890751;29;20048;-66
2023/09/07 06:15:31;;;;;;;4.35;1.00;;;13.30;99.90;;;;;;4906684;29;20117;-66
2023/09/07 06:17:58;;;;;;;2.47;1.30;;;13.40;99.90;;;;;;4890978;29;20072;-67
2023/09/07 06:20:25;;;;;;;3.45;0.85;;;13.50;99.90;;;;;;4892918;29;20087;-67
2023/09/07 06:22:54;;;;;;;1.83;0.68;;;13.60;99.90;;;;;;4893919;29;20056;-68
2023/09/07 06:25:22;;;;;;;2.63;1.00;;;13.70;99.90;;;;;;4906729;29;20072;-66
2023/09/07 06:27:49;;;;;;;1.50;1.27;;;13.80;99.90;;;;;;4910887;29;20055;-67
2023/09/07 06:30:16;;;;;;;4.15;0.95;;;13.90;99.90;;;;;;4892056;29;20052;-68
2023/09/07 06:32:44;;;;;;;3.38;0.80;;;13.90;99.90;;;;;;4892215;29;20380;-68
2023/09/07 06:35:11;;;;;;;1.80;0.77;;;14.00;99.90;;;;;;4910298;29;20413;-68
2023/09/07 06:37:40;;;;;;;0.93;0.63;;;14.10;99.90;;;;;;4906756;29;20163;-67
2023/09/07 06:40:09;;;;;;;2.33;1.45;;;14.10;99.90;;;;;;4890651;29;20056;-69
2023/09/07 06:42:37;;;;;;;1.58;0.55;;;14.20;99.90;;;;;;4886350;29;20059;-67
2023/09/07 06:45:10;;;;;;;2.60;1.00;;;14.30;99.90;;;;;;4901555;29;20052;-67
2023/09/07 06:47:38;;;;;;;2.28;1.10;;;14.30;99.90;;;;;;4889900;29;20049;-66
2023/09/07 06:50:06;;;;;;;1.85;0.70;;;14.40;99.90;;;;;;4889174;29;20140;-70
2023/09/07 06:52:33;;;;;;;3.15;0.60;;;14.50;99.90;;;;;;4890357;29;20044;-66
2023/09/07 06:55:00;;;;;;;3.70;0.80;;;14.50;99.90;;;;;;4888803;29;20071;-66
2023/09/07 06:57:27;;;;;;;6.45;0.85;;;14.60;99.90;;;;;;4903455;29;20055;-68
2023/09/07 06:59:55;;;;;;;1.48;1.38;;;14.70;99.90;;;;;;4903793;29;20056;-66
2023/09/07 07:02:22;;;;;;;0.95;0.50;;;14.80;99.90;;;;;;4885343;29;20060;-67
2023/09/07 07:04:49;;;;;;;1.58;0.80;;;14.90;99.90;;;;;;4907926;29;20080;-68
2023/09/07 07:07:17;;;;;;;1.95;0.30;;;15.00;99.90;;;;;;4905984;29;20063;-67
2023/09/07 07:09:44;;;;;;;2.47;0.90;;;15.10;99.90;;;;;;4904088;29;20479;-66
2023/09/07 07:12:12;;;;;;;4.43;0.65;;;15.10;99.90;;;;;;4892895;29;20609;-68
2023/09/07 07:14:39;;;;;;;1.15;0.60;;;15.20;99.90;;;;;;4901570;29;20048;-68
2023/09/07 07:17:07;;;;;;;1.42;0.40;;;15.20;99.90;;;;;;4889043;29;20513;-69
2023/09/07 07:19:35;;;;;;;2.13;1.02;;;15.30;99.90;;;;;;4893978;29;20127;-71
2023/09/07 07:22:03;;;;;;;1.40;0.75;;;15.30;99.90;;;;;;4890063;29;20060;-72
2023/09/07 07:24:32;;;;;;;1.42;0.30;;;15.40;99.90;;;;;;4909300;29;20502;-66
2023/09/07 07:27:00;;;;;;;0.55;0.38;;;15.50;99.90;;;;;;4890825;29;20147;-66
2023/09/07 07:29:29;;;;;;;1.58;1.48;;;15.60;99.90;;;;;;4892343;29;20490;-67
2023/09/07 07:32:00;;;;;;;3.15;0.57;;;15.60;99.90;;;;;;4893461;29;20048;-67
2023/09/07 07:34:27;;;;;;;3.92;0.85;;;15.70;99.90;;;;;;4888399;29;20148;-67
2023/09/07 07:36:55;;;;;;;0.50;0.50;;;15.80;99.90;;;;;;4889896;29;20052;-68
2023/09/07 07:39:22;;;;;;;2.22;1.38;;;15.90;99.90;;;;;;4888379;29;20066;-67
2023/09/07 07:41:50;;;;;;;1.33;0.65;;;16.00;99.90;;;;;;4889001;29;20080;-67
2023/09/07 07:44:17;;;;;;;4.70;0.52;;;16.00;99.90;;;;;;4903061;29;20624;-68
2023/09/07 07:46:45;;;;;;;2.85;0.70;;;16.10;99.90;;;;;;4885782;29;20070;-67
2023/09/07 07:49:13;;;;;;;4.60;0.68;;;16.20;99.90;;;;;;4885663;29;20046;-68
2023/09/07 07:51:41;;;;;;;0.50;0.40;;;16.30;99.90;;;;;;4899568;29;20492;-68
2023/09/07 07:54:08;;;;;;;3.00;0.57;;;16.40;99.90;;;;;;4903014;29;20056;-69
2023/09/07 07:56:36;;;;;;;1.58;1.25;;;16.50;99.90;;;;;;4905768;29;20052;-67
2023/09/07 07:59:05;;;;;;;4.40;0.65;;;16.60;99.90;;;;;;4901702;29;20136;-69
2023/09/07 08:01:32;;;;;;;4.05;0.85;;;16.60;99.90;;;;;;4903908;29;20044;-67
2023/09/07 08:04:00;;;;;;;1.40;1.10;;;16.70;99.90;;;;;;4884638;29;20044;-67
2023/09/07 08:06:31;;;;;;;2.30;0.88;;;16.80;99.90;;;;;;4906224;29;20399;-67
2023/09/07 08:08:58;;;;;;;0.85;0.43;;;16.90;99.90;;;;;;4885727;29;20503;-67
2023/09/07 08:11:26;;;;;;;0.82;0.43;;;17.00;99.90;;;;;;4904548;29;20689;-67
2023/09/07 08:13:53;;;;;;;3.63;0.80;;;17.00;99.90;;;;;;4900032;29;20079;-69
2023/09/07 08:16:20;;;;;;;3.28;0.70;;;17.00;99.90;;;;;;4905116;29;20047;-73
2023/09/07 08:18:48;;;;;;;4.65;0.65;;;17.10;99.90;;;;;;4889283;29;20111;-67
2023/09/07 08:21:16;;;;;;;1.67;0.65;;;17.10;99.90;;;;;;4887120;29;20064;-66
2023/09/07 08:23:44;;;;;;;1.45;0.47;;;17.20;99.90;;;;;;4897993;29;20063;-68
2023/09/07 08:26:12;;;;;;;3.72;0.77;;;17.20;99.90;;;;;;4899016;29;20413;-67
2023/09/07 08:28:40;;;;;;;2.55;0.65;;;17.30;99.90;;;;;;4900335;29;20064;-68
2023/09/07 08:31:07;;;;;;;0.90;0.50;;;17.40;99.90;;;;;;4906990;29;20593;-67
2023/09/07 08:33:39;;;;;;;1.05;0.50;;;17.50;99.90;;;;;;4901851;29;20049;-67
2023/09/07 08:36:08;;;;;;;4.07;1.80;;;17.60;99.90;;;;;;4906831;29;20610;-69
2023/09/07 08:38:35;;;;;;;6.97;0.70;;;17.70;99.90;;;;;;4903031;29;20044;-68
2023/09/07 08:41:05;;;;;;;3.35;0.90;;;17.80;99.90;;;;;;4906735;29;20127;-70
2023/09/07 08:43:34;;;;;;;;;;;17.90;99.90;;;;;;4905834;29;20111;-67
2023/09/07 08:46:14;;;;;;;0.60;0.40;;;18.00;99.90;;;;;;4900595;29;19962;-67
2023/09/07 08:48:42;;;;;;;;;;;18.10;99.90;;;;;;4902416;29;20594;-67
2023/09/07 08:51:11;;;;;;;0.93;0.50;;;18.10;99.90;;;;;;4901198;29;19928;-68
2023/09/07 08:53:40;;;;;;;3.05;1.25;;;18.10;99.90;;;;;;4901788;29;20052;-67
2023/09/07 08:56:10;;;;;;;1.05;0.65;;;18.20;99.90;;;;;;4886583;29;20040;-67
2023/09/07 08:58:37;;;;;;;1.48;0.88;;;18.30;99.90;;;;;;4906642;29;20447;-67
2023/09/07 09:01:05;;;;;;;1.50;0.80;;;18.40;99.90;;;;;;4906133;29;20056;-69
2023/09/07 09:03:37;;;;;;;0.82;0.52;;;18.40;99.90;;;;;;4904813;29;20506;-68
2023/09/07 09:06:05;;;;;;;2.15;0.73;;;18.50;99.90;;;;;;4910026;29;20151;-70
2023/09/07 09:08:48;;;;;;;2.70;1.02;;;18.60;99.90;;;;;;4907077;29;20083;-68
2023/09/07 09:11:17;;;;;;;0.95;0.68;;;18.70;99.90;;;;;;4909457;29;20048;-67
2023/09/07 09:13:44;;;;;;;2.50;0.90;;;18.80;99.90;;;;;;4907648;29;20063;-68
2023/09/07 09:16:14;;;;;;;2.63;0.65;;;18.80;99.90;;;;;;4906375;29;20036;-70
2023/09/07 09:18:52;;;;;;;1.33;0.88;;;18.90;99.90;;;;;;4906840;29;20084;-68
2023/09/07 09:21:20;;;;;;;3.03;1.33;;;19.10;99.90;;;;;;4906463;29;20399;-67
2023/09/07 09:23:51;;;;;;;0.77;0.57;;;19.20;99.90;;;;;;4910456;29;20551;-68
2023/09/07 09:26:18;;;;;;;1.33;1.23;;;19.20;99.90;;;;;;4909433;29;20158;-68
2023/09/07 09:28:46;;;;;;;1.40;0.68;;;19.30;99.90;;;;;;4906409;29;20048;-67
2023/09/07 09:31:14;;;;;;;1.05;0.63;;;19.40;99.90;;;;;;4904258;29;20040;-69
2023/09/07 09:33:42;;;;;;;0.47;0.38;;;19.50;99.90;;;;;;4909640;29;20131;-67
2023/09/07 09:36:09;;;;;;;2.80;0.93;;;19.60;99.90;;;;;;4909712;29;20495;-70
2023/09/07 09:38:36;;;;;;;1.40;0.93;;;19.60;99.90;;;;;;4908137;29;20052;-69
2023/09/07 09:41:04;;;;;;;1.92;0.95;;;19.60;99.90;;;;;;4910273;29;20074;-68
2023/09/07 09:43:31;;;;;;;2.65;0.80;;;19.70;99.90;;;;;;4907578;29;20127;-68
2023/09/07 09:45:59;;;;;;;1.75;0.68;;;19.80;99.90;;;;;;4907784;29;20040;-68
2023/09/07 09:48:28;;;;;;;1.23;0.60;;;19.80;99.90;;;;;;4907824;29;20054;-68
2023/09/07 09:50:57;;;;;;;1.70;0.45;;;19.90;99.90;;;;;;4905899;29;20118;-68
2023/09/07 09:53:27;;;;;;;2.67;0.52;;;20.00;99.90;;;;;;4907221;29;20052;-67
2023/09/07 09:55:54;;;;;;;1.55;0.70;;;20.10;99.90;;;;;;4908167;29;20764;-67
2023/09/07 09:58:21;;;;;;;2.47;0.63;;;20.20;99.90;;;;;;4903508;29;20055;-69
2023/09/07 10:00:52;;;;;;;0.95;0.43;;;20.10;99.90;;;;;;4904722;29;20107;-69
2023/09/07 10:03:30;;;;;;;1.15;0.60;;;20.20;99.90;;;;;;4904854;29;20052;-70
2023/09/07 10:06:11;;;;;;;1.15;0.65;;;20.10;99.90;;;;;;4909994;29;20132;-68
2023/09/07 10:08:38;;;;;;;2.83;1.05;;;19.60;99.90;;;;;;4909903;29;20059;-68
2023/09/07 10:11:11;;;;;;;2.45;0.75;;;19.40;99.90;;;;;;4907184;29;20136;-67
2023/09/07 10:13:38;;;;;;;2.15;0.52;;;19.10;99.90;;;;;;4905478;29;20048;-69
2023/09/07 10:16:09;;;;;;;1.13;0.75;;;19.10;99.90;;;;;;4901634;29;20679;-70
2023/09/07 10:18:38;;;;;;;1.90;0.70;;;18.80;99.90;;;;;;4908611;29;20044;-69
2023/09/07 10:21:06;;;;;;;2.67;0.77;;;18.80;99.90;;;;;;4902824;29;20100;-68
2023/09/07 10:23:42;;;;;;;2.50;0.70;;;18.70;99.90;;;;;;4907281;29;20131;-69
2023/09/07 10:26:16;;;;;;;1.05;0.40;;;18.90;99.90;;;;;;4895988;29;20052;-67
2023/09/07 10:28:44;;;;;;;2.30;0.63;;;18.90;99.90;;;;;;4906987;29;20072;-66
2023/09/07 10:31:15;;;;;;;2.47;0.60;;;18.90;99.90;;;;;;4901166;29;20095;-69
2023/09/07 10:33:43;;;;;;;4.72;0.70;;;18.90;99.90;;;;;;4904031;29;20087;-70
2023/09/07 10:36:24;;;;;;;1.35;0.50;;;18.90;99.90;;;;;;4903751;29;20044;-69
2023/09/07 10:38:55;;;;;;;2.10;0.50;;;18.90;99.90;;;;;;4905612;29;20331;-69
2023/09/07 10:41:22;;;;;;;;;;;18.80;99.90;;;;;;4905955;29;20629;-68
2023/09/07 10:43:54;;;;;;;2.97;0.93;;;18.80;99.90;;;;;;4906850;29;19923;-69
2023/09/07 10:46:22;;;;;;;0.57;0.38;;;18.90;99.90;;;;;;4903578;29;20043;-66
2023/09/07 10:48:51;;;;;;;0.43;0.38;;;18.90;99.90;;;;;;4902997;29;20052;-66
2023/09/07 10:51:20;;;;;;;3.05;0.60;;;19.00;99.90;;;;;;4904500;29;20399;-66
2023/09/07 10:53:48;;;;;;;5.30;0.70;;;19.00;99.90;;;;;;4905830;29;20055;-67
2023/09/07 10:56:15;;;;;;;2.70;0.75;;;19.00;99.90;;;;;;4906566;29;20036;-70
2023/09/07 10:58:43;;;;;;;2.05;0.65;;;18.90;99.90;;;;;;4905368;29;20060;-69
2023/09/07 11:01:10;;;;;;;1.75;0.52;;;19.00;99.90;;;;;;4907065;29;20083;-67
2023/09/07 11:03:38;;;;;;;1.20;0.65;;;18.90;99.90;;;;;;4905386;29;20295;-70
2023/09/07 11:06:12;;;;;;;2.28;1.10;;;18.90;99.90;;;;;;4903634;29;20461;-66
2023/09/07 11:08:39;;;;;;;1.17;0.73;;;18.90;99.90;;;;;;4904927;29;20052;-70
2023/09/07 11:11:06;;;;;;;1.40;0.73;;;19.00;99.90;;;;;;4904147;29;20131;-66
2023/09/07 11:13:33;;;;;;;1.10;0.73;;;19.10;99.90;;;;;;4903259;29;20075;-66
2023/09/07 11:16:01;;;;;;;3.97;0.70;;;19.10;99.90;;;;;;4909265;29;20088;-67
2023/09/07 11:18:28;;;;;;;0.70;0.50;;;19.10;99.90;;;;;;4903757;29;20090;-67
2023/09/07 11:20:56;;;;;;;1.98;0.93;;;19.20;99.90;;;;;;4898485;29;20084;-68
2023/09/07 11:23:24;;;;;;;1.80;0.70;;;19.30;99.90;;;;;;4900968;29;20060;-68
2023/09/07 11:25:51;;;;;;;0.98;0.45;;;19.40;99.90;;;;;;4904051;29;20468;-70
2023/09/07 11:28:22;;;;;;;1.27;0.50;;;19.40;99.90;;;;;;4906603;29;20052;-70
2023/09/07 11:30:54;;;;;;;2.30;0.55;;;19.50;99.90;;;;;;4898997;29;20092;-72
2023/09/07 11:33:22;;;;;;;1.00;0.43;;;19.70;99.90;;;;;;4905062;29;20044;-68
2023/09/07 11:35:50;;;;;;;2.38;0.60;;;19.80;99.90;;;;;;4902750;29;20479;-67
2023/09/07 11:38:18;;;;;;;2.65;1.00;;;19.80;99.90;;;;;;4903321;29;20495;-70
2023/09/07 11:40:45;;;;;;;1.30;0.60;;;19.80;99.90;;;;;;4907580;29;20447;-68
2023/09/07 11:43:16;;;;;;;0.60;0.40;;;19.90;99.90;;;;;;4907027;29;20078;-72
2023/09/07 11:45:45;;;;;;;1.70;0.70;;;19.80;99.90;;;;;;4903420;29;20140;-69
2023/09/07 11:48:12;;;;;;;1.45;0.57;;;19.80;99.90;;;;;;4905627;29;20645;-71
2023/09/07 11:50:40;;;;;;;2.75;0.57;;;19.90;99.90;;;;;;4904104;29;20420;-66
2023/09/07 11:53:07;;;;;;;2.80;0.43;;;19.90;99.90;;;;;;4903639;29;20072;-67
2023/09/07 11:55:34;;;;;;;4.05;0.50;;;19.80;99.90;;;;;;4908668;29;20044;-69
2023/09/07 11:58:04;;;;;;;1.67;0.80;;;19.70;99.90;;;;;;4908029;29;20054;-67
2023/09/07 12:00:31;;;;;;;3.40;0.33;;;19.70;99.90;;;;;;4899873;29;20051;-67
2023/09/07 12:02:59;;;;;;;3.97;1.17;;;19.80;99.90;;;;;;4907544;29;20298;-66
2023/09/07 12:05:26;;;;;;;5.07;1.23;;;19.80;99.90;;;;;;4903110;29;20048;-69
2023/09/07 12:07:53;;;;;;;0.80;0.30;;;19.80;99.90;;;;;;4888499;29;20814;-68
2023/09/07 12:10:21;;;;;;;6.25;0.70;;;19.60;99.90;;;;;;4902195;29;20051;-67
2023/09/07 12:12:48;;;;;;;1.55;0.50;;;19.50;99.90;;;;;;4907909;29;20171;-67
2023/09/07 12:15:15;;;;;;;7.82;0.95;;;19.40;99.90;;;;;;4902244;29;20423;-68
2023/09/07 12:17:42;;;;;;;3.78;0.70;;;19.60;99.90;;;;;;4908227;29;20486;-68
2023/09/07 12:20:10;;;;;;;5.90;1.13;;;19.60;99.90;;;;;;4900605;29;20052;-68
2023/09/07 12:22:38;;;;;;;7.53;2.95;;;19.50;99.90;;;;;;4903950;29;20052;-69
2023/09/07 12:25:06;;;;;;;6.72;1.30;;;19.50;99.90;;;;;;4902776;29;20128;-69
2023/09/07 12:27:46;;;;;;;2.60;0.60;;;19.40;99.90;;;;;;4903734;29;20135;-74
2023/09/07 12:30:20;;;;;;;2.05;0.70;;;19.40;99.90;;;;;;4900584;29;20040;-70
2023/09/07 12:32:48;;;;;;;2.20;1.27;;;19.40;99.90;;;;;;4904235;29;20050;-69
2023/09/07 12:35:15;;;;;;;6.90;0.80;;;19.40;99.90;;;;;;4908455;29;20055;-69
2023/09/07 12:37:42;;;;;;;1.65;0.80;;;19.50;99.90;;;;;;4908778;29;20044;-71
2023/09/07 12:40:12;;;;;;;1.65;0.80;;;19.50;99.90;;;;;;4907235;29;20151;-71
2023/09/07 12:42:41;;;;;;;1.30;0.63;;;19.50;99.90;;;;;;4909297;29;20234;-68
2023/09/07 12:45:13;;;;;;;1.75;1.48;;;19.60;99.90;;;;;;4909859;29;20434;-67
2023/09/07 12:47:41;;;;;;;1.27;0.77;;;19.60;99.90;;;;;;4909456;29;20507;-72
2023/09/07 12:50:08;;;;;;;2.83;0.85;;;19.80;99.90;;;;;;4905177;29;20059;-69
2023/09/07 12:52:38;;;;;;;2.15;0.77;;;19.90;99.90;;;;;;4909898;29;20112;-69